DAAF weather

Aoulef Airport
Aoulef, Adrar Province, Algeria

Public forecast

Using degrees Celsius for public forecast. Weather courtesy of forecast.io.

Closest aviation weather report (METAR) to Aoulef Airport

Closest report is In Salah Airport, 75.7 nm (140.2 km) E. Retrieved 2020/04/08 18:00 UTC (47 minutes ago):

DAUI 081800Z 08018KT 9000 DRSA NSC 32/M06 Q1013

Closest aviation forecast (TAF) to Aoulef Airport

Closest forecast is In Salah Airport, 75.7 nm (140.2 km) E. Retrieved 2020/04/08 18:33 UTC (14 minutes ago):

TAF DAUI 081700Z 0818/0918 06018KT 8000 NSC PROB30 TEMPO 0818/0821 4000 DRSA PROB30 0906/0914 4000 DRSA